sensor_id;sensor_type;location;lat;lon;timestamp;pressure;altitude;pressure_sealevel;temperature
60003;BMP280;46322;52.018;8.702;2022-12-18T00:04:42;101532.50;;;-5.01
60003;BMP280;46322;52.018;8.702;2022-12-18T00:09:42;101533.72;;;-5.11
60003;BMP280;46322;52.018;8.702;2022-12-18T00:14:42;101532.41;;;-5.38
60003;BMP280;46322;52.018;8.702;2022-12-18T00:19:43;101519.50;;;-5.38
60003;BMP280;46322;52.018;8.702;2022-12-18T00:24:43;101519.13;;;-5.35
60003;BMP280;46322;52.018;8.702;2022-12-18T00:29:43;101529.09;;;-5.24
60003;BMP280;46322;52.018;8.702;2022-12-18T00:34:43;101541.16;;;-5.16
60003;BMP280;46322;52.018;8.702;2022-12-18T00:39:43;101549.88;;;-5.09
60003;BMP280;46322;52.018;8.702;2022-12-18T00:44:43;101534.28;;;-5.24
60003;BMP280;46322;52.018;8.702;2022-12-18T00:49:44;101536.59;;;-5.37
60003;BMP280;46322;52.018;8.702;2022-12-18T00:54:44;101533.00;;;-5.28
60003;BMP280;46322;52.018;8.702;2022-12-18T00:59:44;101531.94;;;-5.11
60003;BMP280;46322;52.018;8.702;2022-12-18T01:04:44;101534.13;;;-5.00
60003;BMP280;46322;52.018;8.702;2022-12-18T01:09:44;101523.13;;;-5.56
60003;BMP280;46322;52.018;8.702;2022-12-18T01:14:44;101530.50;;;-5.44
60003;BMP280;46322;52.018;8.702;2022-12-18T01:19:45;101532.72;;;-5.33
60003;BMP280;46322;52.018;8.702;2022-12-18T01:24:45;101516.25;;;-5.40
60003;BMP280;46322;52.018;8.702;2022-12-18T01:29:45;101516.78;;;-5.45
60003;BMP280;46322;52.018;8.702;2022-12-18T01:34:45;101513.97;;;-5.35
60003;BMP280;46322;52.018;8.702;2022-12-18T01:39:45;101519.94;;;-5.35
60003;BMP280;46322;52.018;8.702;2022-12-18T01:49:56;101531.59;;;-5.39
60003;BMP280;46322;52.018;8.702;2022-12-18T01:54:56;101529.81;;;-5.38
60003;BMP280;46322;52.018;8.702;2022-12-18T01:59:59;101529.66;;;-5.37
60003;BMP280;46322;52.018;8.702;2022-12-18T02:04:59;101525.06;;;-5.58
60003;BMP280;46322;52.018;8.702;2022-12-18T02:10:05;101528.09;;;-5.54
60003;BMP280;46322;52.018;8.702;2022-12-18T02:20:18;101526.25;;;-5.37
60003;BMP280;46322;52.018;8.702;2022-12-18T02:30:34;101519.25;;;-5.60
60003;BMP280;46322;52.018;8.702;2022-12-18T02:35:36;101531.44;;;-5.93
60003;BMP280;46322;52.018;8.702;2022-12-18T02:40:36;101515.66;;;-5.51
60003;BMP280;46322;52.018;8.702;2022-12-18T02:51:24;101508.41;;;-6.11
60003;BMP280;46322;52.018;8.702;2022-12-18T02:56:30;101515.91;;;-5.77
60003;BMP280;46322;52.018;8.702;2022-12-18T03:06:51;101516.28;;;-5.96
60003;BMP280;46322;52.018;8.702;2022-12-18T03:11:54;101525.16;;;-5.99
60003;BMP280;46322;52.018;8.702;2022-12-18T03:16:57;101528.41;;;-6.05
60003;BMP280;46322;52.018;8.702;2022-12-18T03:21:57;101535.47;;;-5.99
60003;BMP280;46322;52.018;8.702;2022-12-18T03:27:02;101517.59;;;-6.00
60003;BMP280;46322;52.018;8.702;2022-12-18T03:32:05;101510.72;;;-5.68
60003;BMP280;46322;52.018;8.702;2022-12-18T03:37:07;101519.91;;;-5.66
60003;BMP280;46322;52.018;8.702;2022-12-18T03:42:10;101516.16;;;-5.63
60003;BMP280;46322;52.018;8.702;2022-12-18T03:47:14;101507.75;;;-5.97
60003;BMP280;46322;52.018;8.702;2022-12-18T03:52:20;101524.91;;;-5.64
60003;BMP280;46322;52.018;8.702;2022-12-18T03:57:22;101522.31;;;-5.56
60003;BMP280;46322;52.018;8.702;2022-12-18T04:02:24;101526.22;;;-5.77
60003;BMP280;46322;52.018;8.702;2022-12-18T04:07:24;101518.34;;;-5.83
60003;BMP280;46322;52.018;8.702;2022-12-18T04:12:25;101516.00;;;-6.17
60003;BMP280;46322;52.018;8.702;2022-12-18T04:17:25;101521.88;;;-5.68
60003;BMP280;46322;52.018;8.702;2022-12-18T04:22:26;101520.75;;;-5.82
60003;BMP280;46322;52.018;8.702;2022-12-18T04:27:26;101522.59;;;-5.90
60003;BMP280;46322;52.018;8.702;2022-12-18T04:32:27;101523.25;;;-6.05
60003;BMP280;46322;52.018;8.702;2022-12-18T04:37:27;101530.63;;;-5.93
60003;BMP280;46322;52.018;8.702;2022-12-18T04:42:27;101532.44;;;-6.02
60003;BMP280;46322;52.018;8.702;2022-12-18T04:47:27;101545.47;;;-5.79
60003;BMP280;46322;52.018;8.702;2022-12-18T04:52:27;101535.19;;;-6.12
60003;BMP280;46322;52.018;8.702;2022-12-18T04:57:27;101531.97;;;-6.14
60003;BMP280;46322;52.018;8.702;2022-12-18T05:02:27;101530.66;;;-6.02
60003;BMP280;46322;52.018;8.702;2022-12-18T05:07:28;101536.84;;;-6.27
60003;BMP280;46322;52.018;8.702;2022-12-18T05:12:28;101533.25;;;-6.10
60003;BMP280;46322;52.018;8.702;2022-12-18T05:17:28;101519.03;;;-5.98
60003;BMP280;46322;52.018;8.702;2022-12-18T05:22:28;101514.03;;;-5.91
60003;BMP280;46322;52.018;8.702;2022-12-18T05:27:28;101509.38;;;-6.12
60003;BMP280;46322;52.018;8.702;2022-12-18T05:32:28;101502.84;;;-5.75
60003;BMP280;46322;52.018;8.702;2022-12-18T05:37:29;101520.25;;;-5.77
60003;BMP280;46322;52.018;8.702;2022-12-18T05:42:29;101529.38;;;-5.50
60003;BMP280;46322;52.018;8.702;2022-12-18T05:47:29;101521.78;;;-5.52
60003;BMP280;46322;52.018;8.702;2022-12-18T05:52:30;101517.31;;;-5.66
60003;BMP280;46322;52.018;8.702;2022-12-18T05:57:30;101512.56;;;-5.93
60003;BMP280;46322;52.018;8.702;2022-12-18T06:02:30;101519.19;;;-6.07
60003;BMP280;46322;52.018;8.702;2022-12-18T06:07:30;101519.19;;;-5.99
60003;BMP280;46322;52.018;8.702;2022-12-18T06:12:30;101526.78;;;-5.89
60003;BMP280;46322;52.018;8.702;2022-12-18T06:17:31;101528.97;;;-5.70
60003;BMP280;46322;52.018;8.702;2022-12-18T06:22:31;101541.72;;;-5.68
60003;BMP280;46322;52.018;8.702;2022-12-18T06:27:31;101536.34;;;-5.51
60003;BMP280;46322;52.018;8.702;2022-12-18T06:32:32;101535.06;;;-5.55
60003;BMP280;46322;52.018;8.702;2022-12-18T06:37:32;101545.03;;;-5.52
60003;BMP280;46322;52.018;8.702;2022-12-18T06:42:32;101558.78;;;-5.51
60003;BMP280;46322;52.018;8.702;2022-12-18T06:47:32;101560.59;;;-5.60
60003;BMP280;46322;52.018;8.702;2022-12-18T06:52:32;101551.47;;;-5.48
60003;BMP280;46322;52.018;8.702;2022-12-18T06:57:33;101561.09;;;-5.73
60003;BMP280;46322;52.018;8.702;2022-12-18T07:02:33;101561.50;;;-5.53
60003;BMP280;46322;52.018;8.702;2022-12-18T07:07:33;101561.88;;;-5.64
60003;BMP280;46322;52.018;8.702;2022-12-18T07:12:34;101570.94;;;-5.68
60003;BMP280;46322;52.018;8.702;2022-12-18T07:17:34;101574.31;;;-5.59
60003;BMP280;46322;52.018;8.702;2022-12-18T07:22:34;101583.13;;;-5.37
60003;BMP280;46322;52.018;8.702;2022-12-18T07:27:34;101580.06;;;-5.49
60003;BMP280;46322;52.018;8.702;2022-12-18T07:32:34;101569.28;;;-5.61
60003;BMP280;46322;52.018;8.702;2022-12-18T07:37:35;101565.25;;;-5.63
60003;BMP280;46322;52.018;8.702;2022-12-18T07:42:35;101556.78;;;-5.88
60003;BMP280;46322;52.018;8.702;2022-12-18T07:47:35;101565.91;;;-5.61
60003;BMP280;46322;52.018;8.702;2022-12-18T07:52:35;101571.34;;;-5.48
60003;BMP280;46322;52.018;8.702;2022-12-18T07:57:35;101553.25;;;-5.48
60003;BMP280;46322;52.018;8.702;2022-12-18T08:02:35;101556.66;;;-5.16
60003;BMP280;46322;52.018;8.702;2022-12-18T08:07:36;101563.69;;;-4.94
60003;BMP280;46322;52.018;8.702;2022-12-18T08:12:36;101567.03;;;-4.62
60003;BMP280;46322;52.018;8.702;2022-12-18T08:17:36;101559.56;;;-4.57
60003;BMP280;46322;52.018;8.702;2022-12-18T08:22:36;101557.97;;;-4.44
60003;BMP280;46322;52.018;8.702;2022-12-18T08:27:36;101541.84;;;-4.46
60003;BMP280;46322;52.018;8.702;2022-12-18T08:32:36;101546.06;;;-4.30
60003;BMP280;46322;52.018;8.702;2022-12-18T08:37:36;101537.41;;;-4.07
60003;BMP280;46322;52.018;8.702;2022-12-18T08:42:37;101536.13;;;-3.52
60003;BMP280;46322;52.018;8.702;2022-12-18T08:47:37;101529.66;;;-3.27
60003;BMP280;46322;52.018;8.702;2022-12-18T08:52:37;101536.91;;;-3.37
60003;BMP280;46322;52.018;8.702;2022-12-18T08:57:37;101536.56;;;-3.34
60003;BMP280;46322;52.018;8.702;2022-12-18T09:02:37;101526.59;;;-2.66
60003;BMP280;46322;52.018;8.702;2022-12-18T09:07:37;101530.13;;;-2.52
60003;BMP280;46322;52.018;8.702;2022-12-18T09:12:38;101534.44;;;-2.31
60003;BMP280;46322;52.018;8.702;2022-12-18T09:17:38;101525.59;;;-2.09
60003;BMP280;46322;52.018;8.702;2022-12-18T09:22:38;101528.63;;;-1.57
60003;BMP280;46322;52.018;8.702;2022-12-18T09:27:38;101536.00;;;-1.61
60003;BMP280;46322;52.018;8.702;2022-12-18T09:32:38;101541.25;;;-1.48
60003;BMP280;46322;52.018;8.702;2022-12-18T09:37:38;101533.06;;;-1.45
60003;BMP280;46322;52.018;8.702;2022-12-18T09:42:38;101528.91;;;-1.26
60003;BMP280;46322;52.018;8.702;2022-12-18T09:47:39;101543.56;;;-1.05
60003;BMP280;46322;52.018;8.702;2022-12-18T09:52:43;101543.03;;;-1.62
60003;BMP280;46322;52.018;8.702;2022-12-18T09:57:49;101543.72;;;-1.20
60003;BMP280;46322;52.018;8.702;2022-12-18T10:02:52;101531.13;;;-0.96
60003;BMP280;46322;52.018;8.702;2022-12-18T10:07:55;101525.53;;;-0.67
60003;BMP280;46322;52.018;8.702;2022-12-18T10:18:22;101546.53;;;-0.35
60003;BMP280;46322;52.018;8.702;2022-12-18T10:28:26;101520.59;;;0.35
60003;BMP280;46322;52.018;8.702;2022-12-18T10:33:30;101490.28;;;0.34
60003;BMP280;46322;52.018;8.702;2022-12-18T10:38:31;101474.44;;;0.35
60003;BMP280;46322;52.018;8.702;2022-12-18T10:43:32;101467.19;;;0.06
60003;BMP280;46322;52.018;8.702;2022-12-18T10:48:47;101460.00;;;0.08
60003;BMP280;46322;52.018;8.702;2022-12-18T10:54:12;101469.78;;;0.44
60003;BMP280;46322;52.018;8.702;2022-12-18T10:59:13;101473.31;;;1.06
60003;BMP280;46322;52.018;8.702;2022-12-18T11:04:17;101464.28;;;0.52
60003;BMP280;46322;52.018;8.702;2022-12-18T11:09:22;101459.47;;;0.80
60003;BMP280;46322;52.018;8.702;2022-12-18T11:14:23;101431.78;;;0.54
60003;BMP280;46322;52.018;8.702;2022-12-18T11:29:37;101394.81;;;0.33
60003;BMP280;46322;52.018;8.702;2022-12-18T11:34:38;101390.94;;;0.67
60003;BMP280;46322;52.018;8.702;2022-12-18T11:39:40;101397.16;;;0.41
60003;BMP280;46322;52.018;8.702;2022-12-18T11:49:48;101372.28;;;1.25
60003;BMP280;46322;52.018;8.702;2022-12-18T11:54:52;101373.56;;;1.16
60003;BMP280;46322;52.018;8.702;2022-12-18T12:25:52;101328.34;;;1.63
60003;BMP280;46322;52.018;8.702;2022-12-18T12:31:06;101317.94;;;0.97
60003;BMP280;46322;52.018;8.702;2022-12-18T12:41:25;101308.00;;;1.24
60003;BMP280;46322;52.018;8.702;2022-12-18T12:46:26;101330.84;;;1.10
60003;BMP280;46322;52.018;8.702;2022-12-18T12:51:37;101326.13;;;1.49
60003;BMP280;46322;52.018;8.702;2022-12-18T12:56:40;101328.38;;;1.15
60003;BMP280;46322;52.018;8.702;2022-12-18T13:01:49;101326.16;;;1.00
60003;BMP280;46322;52.018;8.702;2022-12-18T13:12:12;101302.38;;;0.90
60003;BMP280;46322;52.018;8.702;2022-12-18T13:17:24;101290.47;;;0.94
60003;BMP280;46322;52.018;8.702;2022-12-18T13:32:44;101269.66;;;1.06
60003;BMP280;46322;52.018;8.702;2022-12-18T13:37:50;101257.09;;;0.96
60003;BMP280;46322;52.018;8.702;2022-12-18T13:42:51;101239.78;;;1.02
60003;BMP280;46322;52.018;8.702;2022-12-18T13:47:51;101222.25;;;1.21
60003;BMP280;46322;52.018;8.702;2022-12-18T13:52:51;101222.38;;;1.38
60003;BMP280;46322;52.018;8.702;2022-12-18T13:58:02;101226.22;;;0.93
60003;BMP280;46322;52.018;8.702;2022-12-18T14:03:15;101232.06;;;0.77
60003;BMP280;46322;52.018;8.702;2022-12-18T14:08:15;101232.38;;;1.29
60003;BMP280;46322;52.018;8.702;2022-12-18T14:13:23;101223.28;;;1.20
60003;BMP280;46322;52.018;8.702;2022-12-18T14:18:38;101217.38;;;1.36
60003;BMP280;46322;52.018;8.702;2022-12-18T14:23:41;101209.59;;;1.06
60003;BMP280;46322;52.018;8.702;2022-12-18T14:28:44;101221.50;;;1.32
60003;BMP280;46322;52.018;8.702;2022-12-18T14:33:44;101225.13;;;1.31
60003;BMP280;46322;52.018;8.702;2022-12-18T14:38:47;101215.13;;;0.98
60003;BMP280;46322;52.018;8.702;2022-12-18T14:43:49;101219.91;;;1.01
60003;BMP280;46322;52.018;8.702;2022-12-18T14:48:49;101200.91;;;1.24
60003;BMP280;46322;52.018;8.702;2022-12-18T14:54:03;101190.03;;;0.97
60003;BMP280;46322;52.018;8.702;2022-12-18T14:59:17;101183.50;;;1.06
60003;BMP280;46322;52.018;8.702;2022-12-18T15:04:26;101192.50;;;1.22
60003;BMP280;46322;52.018;8.702;2022-12-18T15:09:27;101178.94;;;1.01
60003;BMP280;46322;52.018;8.702;2022-12-18T15:15:00;101191.47;;;1.23
60003;BMP280;46322;52.018;8.702;2022-12-18T15:19:58;101187.88;;;1.05
60003;BMP280;46322;52.018;8.702;2022-12-18T15:24:59;101189.28;;;1.08
60003;BMP280;46322;52.018;8.702;2022-12-18T15:35:11;101166.09;;;1.00
60003;BMP280;46322;52.018;8.702;2022-12-18T15:40:14;101164.81;;;1.44
60003;BMP280;46322;52.018;8.702;2022-12-18T15:45:15;101156.06;;;1.27
60003;BMP280;46322;52.018;8.702;2022-12-18T15:50:15;101144.13;;;1.19
60003;BMP280;46322;52.018;8.702;2022-12-18T15:55:19;101134.47;;;1.43
60003;BMP280;46322;52.018;8.702;2022-12-18T16:00:20;101126.31;;;1.28
60003;BMP280;46322;52.018;8.702;2022-12-18T16:05:20;101130.72;;;1.39
60003;BMP280;46322;52.018;8.702;2022-12-18T16:10:21;101135.63;;;1.35
60003;BMP280;46322;52.018;8.702;2022-12-18T16:15:21;101138.13;;;1.30
60003;BMP280;46322;52.018;8.702;2022-12-18T16:20:22;101122.09;;;1.27
60003;BMP280;46322;52.018;8.702;2022-12-18T16:25:23;101099.72;;;1.43
60003;BMP280;46322;52.018;8.702;2022-12-18T16:30:24;101089.94;;;1.38
60003;BMP280;46322;52.018;8.702;2022-12-18T16:35:25;101085.78;;;1.25
60003;BMP280;46322;52.018;8.702;2022-12-18T16:40:25;101075.44;;;1.54
60003;BMP280;46322;52.018;8.702;2022-12-18T16:45:26;101092.34;;;1.28
60003;BMP280;46322;52.018;8.702;2022-12-18T16:50:26;101099.84;;;1.24
60003;BMP280;46322;52.018;8.702;2022-12-18T16:55:26;101075.41;;;1.66
60003;BMP280;46322;52.018;8.702;2022-12-18T17:00:26;101059.88;;;1.35
60003;BMP280;46322;52.018;8.702;2022-12-18T17:05:26;101054.75;;;1.17
60003;BMP280;46322;52.018;8.702;2022-12-18T17:10:26;101041.81;;;1.22
60003;BMP280;46322;52.018;8.702;2022-12-18T17:15:27;101046.81;;;1.59
60003;BMP280;46322;52.018;8.702;2022-12-18T17:20:27;101059.16;;;1.52
60003;BMP280;46322;52.018;8.702;2022-12-18T17:25:27;101048.38;;;1.60
60003;BMP280;46322;52.018;8.702;2022-12-18T17:30:28;101031.13;;;1.35
60003;BMP280;46322;52.018;8.702;2022-12-18T17:35:28;101018.41;;;1.39
60003;BMP280;46322;52.018;8.702;2022-12-18T17:40:31;101028.31;;;1.02
60003;BMP280;46322;52.018;8.702;2022-12-18T17:45:34;101005.19;;;1.57
60003;BMP280;46322;52.018;8.702;2022-12-18T17:50:34;101008.22;;;1.26
60003;BMP280;46322;52.018;8.702;2022-12-18T17:55:34;101009.88;;;1.44
60003;BMP280;46322;52.018;8.702;2022-12-18T18:00:35;100993.41;;;1.43
60003;BMP280;46322;52.018;8.702;2022-12-18T18:05:37;100990.84;;;1.31
60003;BMP280;46322;52.018;8.702;2022-12-18T18:10:38;100988.06;;;1.38
60003;BMP280;46322;52.018;8.702;2022-12-18T18:15:38;100987.91;;;1.68
60003;BMP280;46322;52.018;8.702;2022-12-18T18:20:39;100986.16;;;1.33
60003;BMP280;46322;52.018;8.702;2022-12-18T18:25:39;100971.19;;;1.69
60003;BMP280;46322;52.018;8.702;2022-12-18T18:30:39;100974.63;;;1.58
60003;BMP280;46322;52.018;8.702;2022-12-18T18:35:42;100993.97;;;1.45
60003;BMP280;46322;52.018;8.702;2022-12-18T18:40:42;100979.50;;;1.78
60003;BMP280;46322;52.018;8.702;2022-12-18T18:45:42;100992.56;;;1.78
60003;BMP280;46322;52.018;8.702;2022-12-18T18:50:42;100996.47;;;1.40
60003;BMP280;46322;52.018;8.702;2022-12-18T18:55:43;100963.69;;;1.73
60003;BMP280;46322;52.018;8.702;2022-12-18T19:00:43;100984.16;;;1.12
60003;BMP280;46322;52.018;8.702;2022-12-18T19:05:43;100983.25;;;1.18
60003;BMP280;46322;52.018;8.702;2022-12-18T19:10:52;100993.50;;;1.60
60003;BMP280;46322;52.018;8.702;2022-12-18T19:15:54;100996.94;;;1.37
60003;BMP280;46322;52.018;8.702;2022-12-18T19:20:58;101018.41;;;1.04
60003;BMP280;46322;52.018;8.702;2022-12-18T19:25:59;100992.81;;;1.65
60003;BMP280;46322;52.018;8.702;2022-12-18T19:31:00;101009.53;;;1.40
60003;BMP280;46322;52.018;8.702;2022-12-18T19:36:08;100994.47;;;1.19
60003;BMP280;46322;52.018;8.702;2022-12-18T19:41:08;100995.00;;;1.44
60003;BMP280;46322;52.018;8.702;2022-12-18T19:46:10;100996.47;;;1.40
60003;BMP280;46322;52.018;8.702;2022-12-18T19:51:12;101005.00;;;1.47
60003;BMP280;46322;52.018;8.702;2022-12-18T19:56:14;101017.88;;;2.34
60003;BMP280;46322;52.018;8.702;2022-12-18T20:01:14;101017.63;;;2.19
60003;BMP280;46322;52.018;8.702;2022-12-18T20:11:18;101026.88;;;1.58
60003;BMP280;46322;52.018;8.702;2022-12-18T20:16:19;101020.84;;;1.69
60003;BMP280;46322;52.018;8.702;2022-12-18T20:21:19;101013.44;;;1.02
60003;BMP280;46322;52.018;8.702;2022-12-18T20:26:19;101014.97;;;1.50
60003;BMP280;46322;52.018;8.702;2022-12-18T20:31:19;100996.75;;;1.15
60003;BMP280;46322;52.018;8.702;2022-12-18T20:36:19;100992.94;;;1.34
60003;BMP280;46322;52.018;8.702;2022-12-18T20:41:21;101001.25;;;1.43
60003;BMP280;46322;52.018;8.702;2022-12-18T20:46:21;100997.28;;;0.94
60003;BMP280;46322;52.018;8.702;2022-12-18T20:51:21;101000.50;;;1.07
60003;BMP280;46322;52.018;8.702;2022-12-18T20:56:22;101002.56;;;1.57
60003;BMP280;46322;52.018;8.702;2022-12-18T21:01:22;101007.16;;;0.92
60003;BMP280;46322;52.018;8.702;2022-12-18T21:06:22;100997.75;;;1.14
60003;BMP280;46322;52.018;8.702;2022-12-18T21:11:27;100998.31;;;1.04
60003;BMP280;46322;52.018;8.702;2022-12-18T21:16:28;100995.13;;;1.38
60003;BMP280;46322;52.018;8.702;2022-12-18T21:21:28;100985.84;;;1.82
60003;BMP280;46322;52.018;8.702;2022-12-18T21:26:28;100983.06;;;1.60
60003;BMP280;46322;52.018;8.702;2022-12-18T21:31:29;100989.91;;;1.38
60003;BMP280;46322;52.018;8.702;2022-12-18T21:36:30;100974.16;;;1.09
60003;BMP280;46322;52.018;8.702;2022-12-18T21:41:31;100979.59;;;1.07
60003;BMP280;46322;52.018;8.702;2022-12-18T21:46:31;100978.81;;;1.19
60003;BMP280;46322;52.018;8.702;2022-12-18T21:51:32;100974.16;;;1.73
60003;BMP280;46322;52.018;8.702;2022-12-18T22:02:03;100958.72;;;1.31
60003;BMP280;46322;52.018;8.702;2022-12-18T22:07:03;100952.66;;;1.99
60003;BMP280;46322;52.018;8.702;2022-12-18T22:12:04;100948.41;;;1.53
60003;BMP280;46322;52.018;8.702;2022-12-18T22:17:04;100954.00;;;1.45
60003;BMP280;46322;52.018;8.702;2022-12-18T22:22:04;100945.88;;;1.58
60003;BMP280;46322;52.018;8.702;2022-12-18T22:27:05;100937.66;;;1.38
60003;BMP280;46322;52.018;8.702;2022-12-18T22:32:06;100948.50;;;1.18
60003;BMP280;46322;52.018;8.702;2022-12-18T22:37:08;100939.88;;;1.57
60003;BMP280;46322;52.018;8.702;2022-12-18T22:42:08;100933.66;;;2.04
60003;BMP280;46322;52.018;8.702;2022-12-18T22:47:08;100934.56;;;1.81
60003;BMP280;46322;52.018;8.702;2022-12-18T22:52:09;100925.81;;;1.87
60003;BMP280;46322;52.018;8.702;2022-12-18T22:57:09;100918.00;;;2.21
60003;BMP280;46322;52.018;8.702;2022-12-18T23:02:09;100907.81;;;1.90
60003;BMP280;46322;52.018;8.702;2022-12-18T23:07:09;100908.63;;;2.08
60003;BMP280;46322;52.018;8.702;2022-12-18T23:12:13;100914.50;;;2.49
60003;BMP280;46322;52.018;8.702;2022-12-18T23:17:13;100901.72;;;2.02
60003;BMP280;46322;52.018;8.702;2022-12-18T23:22:14;100901.91;;;2.12
60003;BMP280;46322;52.018;8.702;2022-12-18T23:27:14;100910.84;;;2.33
60003;BMP280;46322;52.018;8.702;2022-12-18T23:32:14;100896.34;;;2.59
60003;BMP280;46322;52.018;8.702;2022-12-18T23:37:14;100899.78;;;2.26
60003;BMP280;46322;52.018;8.702;2022-12-18T23:42:14;100895.72;;;2.35
60003;BMP280;46322;52.018;8.702;2022-12-18T23:47:14;100889.28;;;2.42
60003;BMP280;46322;52.018;8.702;2022-12-18T23:52:15;100885.25;;;2.35
60003;BMP280;46322;52.018;8.702;2022-12-18T23:57:15;100875.72;;;2.62
